Latest Weather Observations for Coolangatta

IDQ60801

Issued at 7:35 pm EST Wednesday 17 September 2014 (issued every 30 minutes, with the page automatically refreshed every 10 minutes)

About weather observations | Map of weather stations | Latest weather observations for QLD | Other Formats
Station Details ID: 040717 Name: COOLANGATTA Lat: -28.17 Lon: 153.51 Height: 4.0 m
Data from the previous 72 hours. | See also: Recent months at Coolangatta
Date/Time
EST
Temp
°C
App
Temp
°C
Dew
Point
Rel
Hum
%
Delta-T
°C
Wind Press
QNH
hPa
Press
MSL
hPa
Rain
since 9 am
mm
Dir
 
Spd
km/h
Gust
km/h
Spd
kts
Gust
kts
17/07:30pm 19.1 19.5 15.2 78 2.3 S 7 9 4 5 1013.6 1013.6 0.0
17/07:00pm 19.3 19.3 15.2 77 2.4 SW 9 15 5 8 1013.1 1013.1 0.0
17/06:30pm 19.3 19.4 15.4 78 2.3 S 9 13 5 7 1012.5 1012.5 0.0
17/06:00pm 19.4 19.0 14.2 72 3.0 S 9 13 5 7 1011.9 1011.9 0.0
17/05:30pm 20.9 20.0 12.6 59 4.7 SW 9 17 5 9 1011.4 1011.4 0.0
17/05:00pm 22.8 20.5 14.6 60 4.8 NE 20 26 11 14 1010.9 1010.9 0.0
17/04:30pm 26.7 22.4 3.2 22 11.6 WNW 15 22 8 12 1010.7 1010.7 0.0
17/04:00pm 27.4 22.6 2.5 20 12.2 NW 17 30 9 16 1010.4 1010.4 0.0
17/03:30pm 27.9 22.6 2.9 20 12.4 W 20 32 11 17 1010.3 1010.3 0.0
17/03:00pm 28.0 22.9 3.0 20 12.4 WNW 19 24 10 13 1010.5 1010.5 0.0
17/02:30pm 27.7 22.2 2.0 19 12.5 WNW 20 33 11 18 1010.6 1010.6 0.0
17/02:00pm 28.1 22.4 3.0 20 12.5 NW 22 35 12 19 1010.8 1010.8 0.0
17/01:30pm 27.5 22.6 3.9 22 11.9 NW 19 22 10 12 1011.3 1011.3 0.0
17/01:00pm 27.1 22.6 4.2 23 11.5 WNW 17 30 9 16 1011.8 1011.8 0.0
17/12:30pm 26.6 22.4 5.5 26 10.9 ENE 17 20 9 11 1012.1 1012.1 0.0
17/12:00pm 25.7 21.2 6.3 29 10.1 ENE 19 24 10 13 1012.7 1012.7 0.0
17/11:30am 25.9 23.0 4.9 26 10.6 ENE 9 13 5 7 1013.3 1013.3 0.0
17/11:00am 25.3 21.9 6.0 29 9.9 ENE 13 17 7 9 1013.8 1013.8 0.0
17/10:30am 25.6 23.1 6.7 30 9.9 NNW 9 17 5 9 1014.3 1014.3 0.0
17/10:00am 24.3 22.3 6.1 31 9.3 NW 6 13 3 7 1014.6 1014.6 0.0
17/09:30am 24.4 23.6 11.0 43 7.5 SE 6 13 3 7 1014.9 1014.9 0.0
17/09:00am 23.4 21.7 9.8 42 7.4 S 9 11 5 6 1015.0 1015.0 0.2
17/08:30am 21.8 20.9 12.6 56 5.2 NW 9 13 5 7 1015.0 1015.0 0.2
17/08:00am 19.7 19.6 13.4 67 3.6 SSW 6 11 3 6 1015.1 1015.1 0.2
17/07:30am 18.1 17.9 13.6 75 2.6 NNW 7 9 4 5 1014.9 1014.9 0.2
17/07:00am 16.0 17.1 13.5 85 1.4 CALM 0 6 0 3 1014.5 1014.5 0.2
17/06:30am 14.3 14.2 13.2 93 0.6 SW 6 7 3 4 1014.0 1014.0 0.2
17/06:00am 14.0 15.0 13.1 94 0.5 SW 0 6 0 3 1013.8 1013.8 0.2
17/05:30am 14.3 14.0 13.2 93 0.6 W 7 11 4 6 1013.4 1013.4 0.2
17/05:00am 14.3 14.1 13.0 92 0.7 WSW 6 9 3 5 1013.0 1013.0 0.2
17/04:30am 14.5 14.8 12.2 86 1.2 W 2 7 1 4 1012.9 1012.9 0.2
17/04:00am 15.8 15.2 13.5 86 1.3 NW 9 13 5 7 1012.6 1012.6 0.2
17/03:30am 15.9 16.1 13.0 83 1.6 WNW 4 11 2 6 1012.4 1012.4 0.2
17/03:00am 16.3 16.2 13.2 82 1.7 NW 6 13 3 7 1012.2 1012.2 0.2
17/02:30am 17.0 15.7 13.7 81 1.9 NNW 13 19 7 10 1012.3 1012.3 0.2
17/02:00am 17.8 15.6 13.3 75 2.5 NW 17 22 9 12 1012.6 1012.6 0.2
17/01:30am 18.1 16.1 13.8 76 2.4 NW 17 24 9 13 1012.7 1012.7 0.2
17/01:00am 17.9 16.9 14.6 81 1.9 NW 13 17 7 9 1012.7 1012.7 0.2
17/12:30am 19.0 17.5 14.1 73 2.8 NNW 15 20 8 11 1012.9 1012.9 0.2
17/12:00am 19.6 18.2 15.5 77 2.4 NNW 17 28 9 15 1012.9 1012.9 0.2
 
Date/Time
EST
Temp
°C
App
Temp
°C
Dew
Point
Rel
Hum
%
Delta-T
°C
Wind Press
QNH
hPa
Press
MSL
hPa
Rain
since 9 am
mm
Dir
 
Spd
km/h
Gust
km/h
Spd
kts
Gust
kts
16/11:30pm 19.4 18.0 15.5 78 2.3 NW 17 22 9 12 1013.1 1013.1 0.2
16/11:00pm 19.5 18.3 16.0 80 2.1 NW 17 30 9 16 1013.3 1013.3 0.2
16/10:30pm 19.4 18.4 15.7 79 2.2 NNW 15 22 8 12 1013.3 1013.3 0.2
16/10:00pm 19.4 18.4 15.5 78 2.3 NW 15 22 8 12 1013.1 1013.1 0.2
16/09:30pm 19.8 18.3 15.4 76 2.6 NNW 17 22 9 12 1013.2 1013.2 0.2
16/09:00pm 20.2 18.4 15.6 75 2.7 NNW 19 30 10 16 1013.1 1013.1 0.2
16/08:30pm 20.3 18.6 16.3 78 2.4 NNW 20 28 11 15 1013.0 1013.0 0.2
16/08:00pm 20.2 18.4 16.0 77 2.5 NNW 20 26 11 14 1012.9 1012.9 0.2
16/07:30pm 20.1 19.3 17.1 83 1.8 N 17 26 9 14 1012.7 1012.7 0.2
16/07:00pm 20.1 19.0 17.7 86 1.5 N 20 28 11 15 1012.2 1012.2 0.2
16/06:30pm 20.5 19.2 18.1 86 1.5 N 22 30 12 16 1012.3 1012.3 0.0
16/06:00pm 20.4 17.6 18.2 87 1.4 N 30 35 16 19 1011.7 1011.7 0.0
16/05:30pm 20.9 19.0 17.7 82 2.0 N 24 32 13 17 1011.8 1011.8 0.0
16/05:00pm 20.9 18.6 17.5 81 2.1 N 26 35 14 19 1011.2 1011.2 0.0
16/04:30pm 21.7 17.5 17.1 75 2.8 N 35 48 19 26 1011.0 1011.0 0.0
16/04:00pm 22.4 18.6 17.1 72 3.3 N 33 44 18 24 1011.0 1011.0 0.0
16/03:30pm 22.8 18.7 17.3 71 3.4 N 35 44 19 24 1010.9 1010.9 0.0
16/03:00pm 22.8 18.3 17.3 71 3.4 N 37 46 20 25 1010.9 1010.9 0.0
16/02:30pm 23.1 19.5 17.6 71 3.4 N 33 43 18 23 1011.2 1011.2 0.0
16/02:00pm 23.6 19.4 17.1 67 4.0 N 35 44 19 24 1011.4 1011.4 0.0
16/01:30pm 23.4 19.7 17.4 69 3.7 N 33 44 18 24 1012.0 1012.0 0.0
16/01:00pm 23.8 20.6 16.3 63 4.6 N 28 35 15 19 1012.6 1012.6 0.0
16/12:30pm 24.2 20.1 15.9 59 5.0 N 32 43 17 23 1013.1 1013.1 0.0
16/12:00pm 23.5 19.3 15.8 62 4.6 N 32 41 17 22 1013.7 1013.7 0.0
16/11:30am 23.4 18.8 15.2 60 4.9 N 33 41 18 22 1014.3 1014.3 0.0
16/11:00am 23.7 19.3 15.2 59 5.1 N 32 41 17 22 1014.7 1014.7 0.0
16/10:30am 22.4 18.3 15.0 63 4.4 N 30 37 16 20 1015.4 1015.4 0.0
16/10:00am 22.9 18.6 15.5 63 4.4 N 32 39 17 21 1015.7 1015.7 0.0
16/09:30am 22.2 17.9 15.3 65 4.1 N 32 37 17 20 1016.1 1016.1 0.0
16/09:00am 21.1 17.2 14.5 66 3.9 N 28 35 15 19 1016.4 1016.4 1.0
16/08:30am 21.0 18.8 14.9 68 3.6 N 20 28 11 15 1016.6 1016.6 1.0
16/08:00am 19.8 18.0 14.4 71 3.1 NNW 17 22 9 12 1016.8 1016.8 1.0
16/07:30am 19.1 17.7 14.6 75 2.6 NNW 15 20 8 11 1016.7 1016.7 1.0
16/07:00am 18.0 16.3 13.7 76 2.4 NNW 15 20 8 11 1016.4 1016.4 1.0
16/06:30am 17.2 16.0 13.9 81 1.9 NW 13 17 7 9 1016.2 1016.2 1.0
16/06:00am 16.5 15.6 13.8 84 1.5 NNW 11 17 6 9 1016.1 1016.1 1.0
16/05:30am 16.5 15.8 14.2 86 1.3 NNW 11 17 6 9 1016.0 1016.0 1.0
16/05:00am 15.8 15.7 14.0 89 1.0 NNW 7 13 4 7 1015.8 1015.8 1.0
16/04:30am 15.4 15.4 14.1 92 0.7 WNW 7 11 4 6 1015.9 1015.9 1.0
16/04:00am 15.1 15.0 14.0 93 0.6 W 7 9 4 5 1015.8 1015.8 1.0
16/03:30am 14.9 14.8 13.8 93 0.6 NW 7 9 4 5 1015.6 1015.6 1.0
16/03:00am 15.1 15.2 13.8 92 0.7 NW 6 7 3 4 1015.5 1015.5 1.0
16/02:30am 15.8 15.8 14.3 91 0.9 NW 7 9 4 5 1015.5 1015.5 1.0
16/02:00am 17.0 16.5 15.0 88 1.2 NNW 11 13 6 7 1015.6 1015.6 1.0
16/01:30am 17.0 17.0 15.2 89 1.0 N 9 11 5 6 1015.8 1015.8 1.0
16/01:00am 17.0 17.0 15.2 89 1.0 N 9 11 5 6 1016.1 1016.1 1.0
16/12:30am 16.8 16.8 15.3 91 0.9 N 9 9 5 5 1016.4 1016.4 1.0
16/12:00am 16.6 16.8 14.6 88 1.1 NNW 7 9 4 5 1016.6 1016.6 1.0
 
Date/Time
EST
Temp
°C
App
Temp
°C
Dew
Point
Rel
Hum
%
Delta-T
°C
Wind Press
QNH
hPa
Press
MSL
hPa
Rain
since 9 am
mm
Dir
 
Spd
km/h
Gust
km/h
Spd
kts
Gust
kts
15/11:30pm 17.0 17.4 14.8 87 1.3 NW 6 7 3 4 1016.9 1016.9 1.0
15/11:00pm 17.0 16.8 14.8 87 1.3 NW 9 11 5 6 1016.7 1016.7 1.0
15/10:30pm 17.0 16.5 15.0 88 1.2 NW 11 15 6 8 1016.6 1016.6 1.0
15/10:00pm 17.2 16.3 14.8 86 1.4 NW 13 15 7 8 1016.7 1016.7 1.0
15/09:30pm 17.6 16.6 14.7 83 1.7 NW 13 17 7 9 1016.6 1016.6 1.0
15/09:00pm 17.5 16.5 14.6 83 1.7 WNW 13 15 7 8 1016.7 1016.7 1.0
15/08:30pm 17.5 16.1 14.4 82 1.8 WNW 15 20 8 11 1016.6 1016.6 1.0
15/08:00pm 17.1 16.5 14.6 85 1.4 WNW 11 15 6 8 1016.4 1016.4 1.0
15/07:30pm 17.0 16.5 15.0 88 1.2 WNW 11 17 6 9 1016.4 1016.4 1.0
15/07:00pm 17.2 16.8 15.2 88 1.2 WNW 11 15 6 8 1016.0 1016.0 1.0
15/06:30pm 18.6 18.1 16.0 85 1.5 NW 13 19 7 10 1015.6 1015.6 1.0
15/06:00pm 19.3 18.8 16.0 81 2.0 ENE 13 22 7 12 1015.6 1015.6 1.0
15/05:30pm 19.3 16.6 15.6 79 2.2 N 24 32 13 17 1015.4 1015.4 0.8
15/05:00pm 18.5 18.1 16.3 87 1.3 ESE 13 19 7 10 1016.0 1016.0 0.8
15/04:50pm 18.5 17.3 16.1 86 1.4 E 17 20 9 11 1015.5 1015.5 0.8
15/04:31pm 19.0 18.0 15.7 81 2.0 SSE 15 20 8 11 1015.7 1015.7 0.2
15/04:30pm 19.1 18.5 15.6 80 2.1 S 13 20 7 11 1015.7 1015.7 0.2
15/04:00pm 20.8 17.5 14.9 69 3.5 N 26 35 14 19 1014.6 1014.6 0.0
15/03:30pm 22.5 18.7 15.8 66 4.0 N 30 39 16 21 1014.0 1014.0 0.0
15/03:00pm 21.6 17.9 15.9 70 3.4 N 30 39 16 21 1014.1 1014.1 0.0
15/02:30pm 21.7 17.4 15.3 67 3.8 N 32 39 17 21 1014.2 1014.2 0.0
15/02:00pm 23.2 18.1 13.1 53 5.8 N 32 39 17 21 1014.6 1014.6 0.0
15/01:30pm 23.8 19.5 14.5 56 5.5 N 30 37 16 20 1015.0 1015.0 0.0
15/01:00pm 23.0 18.5 14.8 60 4.9 N 32 39 17 21 1015.4 1015.4 0.0
15/12:30pm 22.1 17.4 14.2 61 4.6 N 32 39 17 21 1016.0 1016.0 0.0
15/12:00pm 23.5 19.7 14.8 58 5.2 N 28 35 15 19 1016.3 1016.3 0.0
15/11:30am 23.8 19.8 13.1 51 6.2 N 26 33 14 18 1016.9 1016.9 0.0
15/11:00am 23.5 19.9 13.1 52 6.0 N 24 32 13 17 1017.5 1017.5 0.0
15/10:30am 22.3 18.6 12.8 55 5.4 N 24 32 13 17 1018.1 1018.1 0.0
15/10:00am 22.8 19.2 13.0 54 5.6 N 24 30 13 16 1018.3 1018.3 0.0
15/09:30am 21.9 18.1 12.5 55 5.3 N 24 30 13 16 1018.7 1018.7 0.0
15/09:00am 21.9 18.5 12.5 55 5.3 N 22 28 12 15 1019.0 1019.0 0.0
15/08:30am 21.0 17.8 11.9 56 5.1 N 20 28 11 15 1019.2 1019.2 0.0
15/08:00am 20.2 17.5 11.7 58 4.7 NNW 17 24 9 13 1019.3 1019.3 0.0
15/07:30am 19.6 17.0 12.1 62 4.2 NW 17 26 9 14 1019.1 1019.1 0.0
15/07:00am 18.5 16.8 12.3 67 3.4 NNW 13 19 7 10 1019.1 1019.1 0.0
15/06:30am 17.1 15.8 12.4 74 2.6 NW 11 17 6 9 1018.8 1018.8 0.0
15/06:00am 16.1 14.2 11.9 76 2.3 NW 13 20 7 11 1018.5 1018.5 0.0
15/05:30am 15.9 14.1 12.1 78 2.1 NW 13 17 7 9 1018.2 1018.2 0.0
15/05:00am 15.7 14.3 12.1 79 2.0 NW 11 17 6 9 1018.3 1018.3 0.0
15/04:30am 15.7 14.3 12.1 79 2.0 NW 11 13 6 7 1017.9 1017.9 0.0
15/04:00am 15.3 13.8 11.9 80 1.8 NW 11 13 6 7 1017.8 1017.8 0.0
15/03:30am 16.0 14.0 12.6 80 1.9 WNW 15 19 8 10 1017.9 1017.9 0.0
15/03:00am 16.3 14.2 12.5 78 2.1 WNW 15 20 8 11 1018.0 1018.0 0.0
15/02:30am 16.3 14.2 12.5 78 2.1 WNW 15 20 8 11 1018.1 1018.1 0.0
15/02:00am 16.6 14.1 12.4 76 2.3 WNW 17 20 9 11 1018.5 1018.5 0.0
15/01:30am 16.4 14.2 12.2 76 2.3 WNW 15 20 8 11 1018.7 1018.7 0.0
15/01:00am 16.6 14.9 12.6 77 2.2 WNW 13 20 7 11 1019.0 1019.0 0.0
15/12:30am 16.4 14.7 12.6 78 2.1 WNW 13 17 7 9 1019.2 1019.2 0.0
15/12:00am 16.3 15.1 12.7 79 2.0 WNW 11 15 6 8 1019.6 1019.6 0.0
 
Date/Time
EST
Temp
°C
App
Temp
°C
Dew
Point
Rel
Hum
%
Delta-T
°C
Wind Press
QNH
hPa
Press
MSL
hPa
Rain
since 9 am
mm
Dir
 
Spd
km/h
Gust
km/h
Spd
kts
Gust
kts
14/11:30pm 16.5 14.8 12.5 77 2.2 WNW 13 17 7 9 1019.9 1019.9 0.0
14/11:00pm 16.3 15.0 12.5 78 2.1 WNW 11 15 6 8 1020.0 1020.0 0.0
14/10:30pm 16.3 15.0 12.5 78 2.1 WNW 11 15 6 8 1020.1 1020.1 0.0
14/10:00pm 16.3 14.6 12.5 78 2.1 WNW 13 15 7 8 1020.2 1020.2 0.0
14/09:30pm 16.0 14.7 12.6 80 1.9 WNW 11 17 6 9 1020.3 1020.3 0.0
14/09:00pm 15.7 14.3 12.3 80 1.9 WNW 11 11 6 6 1020.1 1020.1 0.0
14/08:30pm 16.4 15.1 12.6 78 2.1 WNW 11 15 6 8 1020.2 1020.2 0.0
14/08:00pm 18.4 16.7 12.6 69 3.2 NNW 13 19 7 10 1020.2 1020.2 0.0

Other Formats:

Comma delimited format used in spreadsheet applications
http://www.bom.gov.au/fwo/IDQ60801/IDQ60801.94592.axf

JavaScript Object Notation format (JSON) in row-major order
http://www.bom.gov.au/fwo/IDQ60801/IDQ60801.94592.json